SBOSBO OTP / LROP
Speedbird OnlineSpeedbird Online OTP / LROP

Henri Coandă International Airport
09:37 11.1°C

Location Bucharest, Romania
Latitude: 44.5711111
Longitude: 26.085
Web Airport Website | Wikipedia
Altitude 96 Meter / 314 Feet
Distance 2,065 KM / 1,283 Miles
from London.
Time Zone UTC +3 hours (Europe/Bucharest)
Codes IATA: OTP
ICAO: LROP
Currency £1 equals RON 5.65
Runways
RunwayLength (m)Surface
08L3500Asphalt
08R3500Asphalt
26L3500Asphalt
26R3500Asphalt
Radio
TypeDescriptionFrequency
APPBUCURESTI APP118.25
ATISOTOPENI ATIS118.5
GNDOTOPENI GND121.7
TWROTOPENI TWR120.9
Live ATC
METAR LROP 060600Z 25005KT CAVOK 09/07 Q1028 NOSIG
TAF TAF LROP 060500Z 0606/0706 VRB04KT CAVOK TEMPO 0609/0614 25010KT
Weather As Of 06 Oct 2022 09:37
Description Clear sky
Wind 11 km/h from West (270°)
Cloud Cover 0%
Precipitation Rain: none, Snow: none
Sunrise 07:19
Sunset 18:48
Lounges MasterCard Business Lounge, Main Terminal
Rotations During the last 90 days there were
147 flights from LHR
149 flights to LHR


© 2017-2022 Speedbird Online